Details From EGKK - London Gatwick
To TXKF - Bermuda Intl
Flight Number -
Tags Generated
Created
Modified
Stats Distance 2,992 nm / 5,542 km
Max Altitude 0 ft / 0 m
Waypoints 4
Social Downloads 0
Likes 0
Share VATSIM

Download

Looking for another format? Having issues loading an existing format? Contact us
Advertisement - Login to hide

Notes

Generated

Route

EGKK GATRA BDA TXKF

ID Type Via Altitude Latitude Longitude Leg Dist Tot Dist Heading (true) Name
O EGKK APT - 0 ft / 0 m 51.14691˚ -0.21257˚ - 0 nm - -
GATRA FIX - 0 ft / 0 m 51.29778˚ -6.63194˚ 241 nm 241 nm 275° / 270° -
BDA VOR - 0 ft / 0 m 32.36436˚ -64.68958˚ 2750 nm 2992 nm 269° / 228° BERMUDA VOR-DME
O TXKF APT - 0 ft / 0 m 32.36669˚ -64.69410˚ 0 nm 2992 nm 301° / 301° -

Altitude Profile

Advertisement - Login to hide

Weather


0- 5 10 15 20 25 30 35+ Temperature / ° C

Clouds and Precipitation
Forecast for 2017-12-18 18:00 UTC. Updated an hour ago

Ground ~20,000 ft ~40,000 ft Winds

EGKK

Details ICAO EGKK (LGW)
Name London Gatwick
Region United Kingdom
Timezone Europe/London (UTC+0.0)
Stats Elevation 196 ft / 60 m (AMSL)
Location 51.148753° -0.192472°
Runways 2
Magnetic Variation 0.430° W

METAR

EGKK 181620Z 30005KT CAVOK 05/03 Q1031

Decode

TAF

TAF EGKK 181108Z 1812/1918 34005KT CAVOK BECMG 1816/1819 3000 BR BECMG 1820/1823 0150 FG FZFG VV/// TEMPO 1911/1915 0700 OVC002 BECMG 1914/1917 4000 BR NSC

Decode

Departure Runways

ID Width Length Bearing (true) Bearing (mag) Surface Threshold Offset Overrun Length
08L 148 ft / 45 m 8,377 ft / 2,553 m 77.69° 78.12° Asphalt 1,053 ft / 321 m 0 ft / 0 m
08R 148 ft / 45 m 10,341 ft / 3,152 m 77.59° 78.02° Asphalt 1,289 ft / 393 m 0 ft / 0 m
26L 148 ft / 45 m 10,341 ft / 3,152 m 257.63° 258.06° Asphalt 879 ft / 268 m 600 ft / 183 m
26R 148 ft / 45 m 8,377 ft / 2,553 m 257.71° 258.14° Asphalt 1,365 ft / 416 m 0 ft / 0 m

TXKF

Details ICAO TXKF (BDA)
Name Bermuda Intl
Region Bermuda
Timezone Unknown (UTC+0.0)
Stats Elevation 12 ft / 4 m (AMSL)
Location 32.364038° -64.678684°
Runways 1
Magnetic Variation 14.784° W

METAR

TXKF 181555Z 26009KT 9999 FEW062 BKN100 BKN300 21/12 Q1023

Decode

TAF

TAF TXKF 181131Z 1812/1912 27007KT 9999 FEW040 BKN150 BECMG 1816/1818 25012KT BECMG 1901/1903 25022KT SCT018 BKN030 BECMG 1910/1912 -SHRA BKN018

Decode

Destination Runways

ID Width Length Bearing (true) Bearing (mag) Surface Threshold Offset Overrun Length
12 150 ft / 46 m 9,701 ft / 2,957 m 101.50° 116.28° Asphalt 0 ft / 0 m 553 ft / 169 m
30 150 ft / 46 m 9,701 ft / 2,957 m 281.52° 296.30° Asphalt 0 ft / 0 m 207 ft / 63 m

Approach Navaids

Runway Type Ident Frequency Range Bearing (true) Bearing (mag) Slope Elevation
30 Localiser IBDA 109.90 MHz 18 nm / 33 km 281.50° 296.29° - 11 ft / 3 m (AMSL)
30 Glidescope IBDA 109.90 MHz 10 nm / 19 km 281.51° 296.29° 3.00° 11 ft / 3 m (AMSL)

Popular Alternatives